Time,TemperatureF,DewpointF,PressureIn,WindDirection,WindDirectionDegrees,WindSpeedMPH,WindSpeedGustMPH,Humidity,HourlyPrecipIn,Conditions,Clouds,dailyrainin,SolarRadiationWatts/m^2,SoftwareType,DateUTC
2013-01-18 00:10:00,29.9,4.9,30.37,West,277,11.0,11.0,34,0.00,,,0.00,0,Wunderground v.1.15,2013-01-18 07:10:00,
2013-01-18 00:30:00,30.1,5.1,30.36,West,261,12.0,16.0,34,0.00,,,0.00,0,Wunderground v.1.15,2013-01-18 07:30:00,
2013-01-18 00:50:00,30.0,5.0,30.36,SW,234,12.0,14.0,34,0.00,,,0.00,0,Wunderground v.1.15,2013-01-18 07:50:00,
2013-01-18 01:10:00,29.7,5.3,30.36,SSW,211,9.0,15.0,35,0.00,,,0.00,0,Wunderground v.1.15,2013-01-18 08:10:00,
2013-01-18 01:20:00,30.0,5.6,30.35,West,266,12.0,12.0,35,0.00,,,0.00,0,Wunderground v.1.15,2013-01-18 08:20:00,
2013-01-18 01:30:00,29.9,5.5,30.34,NNW,336,10.0,15.0,35,0.00,,,0.00,0,Wunderground v.1.15,2013-01-18 08:30:00,
2013-01-18 01:40:00,30.1,5.1,30.35,SW,232,10.0,10.0,34,0.00,,,0.00,0,Wunderground v.1.15,2013-01-18 08:40:00,
2013-01-18 01:51:00,30.1,5.1,30.35,NW,309,12.0,16.0,34,0.00,,,0.00,0,Wunderground v.1.15,2013-01-18 08:51:00,
2013-01-18 02:00:00,30.1,5.1,30.34,West,272,15.0,15.0,34,0.00,,,0.00,0,Wunderground v.1.15,2013-01-18 09:00:00,
2013-01-18 02:10:00,29.9,4.9,30.32,NW,308,10.0,13.0,34,0.00,,,0.00,0,Wunderground v.1.15,2013-01-18 09:10:00,
2013-01-18 02:20:00,30.1,5.1,30.32,SW,224,10.0,10.0,34,0.00,,,0.00,0,Wunderground v.1.15,2013-01-18 09:20:00,
2013-01-18 02:40:00,30.1,5.1,30.32,WSW,238,10.0,10.0,34,0.00,,,0.00,0,Wunderground v.1.15,2013-01-18 09:40:00,
2013-01-18 03:00:00,30.4,4.7,30.30,North,10,7.0,7.0,33,0.00,,,0.00,0,Wunderground v.1.15,2013-01-18 10:00:00,
2013-01-18 03:11:00,28.7,5.1,30.31,NE,44,14.0,14.0,36,0.00,,,0.00,0,Wunderground v.1.15,2013-01-18 10:11:00,
2013-01-18 03:20:00,28.1,4.5,30.29,SE,139,13.0,14.0,36,0.00,,,0.00,0,Wunderground v.1.15,2013-01-18 10:20:00,
2013-01-18 03:50:00,26.9,4.6,30.28,East,101,12.0,16.0,38,0.00,,,0.00,0,Wunderground v.1.15,2013-01-18 10:50:00,
2013-01-18 04:01:00,28.8,4.5,30.26,ENE,73,16.0,16.0,35,0.00,,,0.00,0,Wunderground v.1.15,2013-01-18 11:01:00,
2013-01-18 04:10:00,29.2,4.3,30.26,East,96,7.0,8.0,34,0.00,,,0.00,0,Wunderground v.1.15,2013-01-18 11:10:00,
2013-01-18 04:20:00,28.1,3.9,30.27,WNW,293,14.0,14.0,35,0.00,,,0.00,0,Wunderground v.1.15,2013-01-18 11:20:00,
2013-01-18 04:41:00,28.4,4.2,30.25,ESE,121,11.0,11.0,35,0.00,,,0.00,0,Wunderground v.1.15,2013-01-18 11:41:00,
2013-01-18 04:50:00,27.3,4.4,30.25,SE,133,11.0,11.0,37,0.00,,,0.00,0,Wunderground v.1.15,2013-01-18 11:50:00,
2013-01-18 05:10:00,26.5,4.3,30.24,SE,137,13.0,18.0,38,0.00,,,0.00,0,Wunderground v.1.15,2013-01-18 12:10:00,
2013-01-18 05:30:00,27.3,4.4,30.23,SE,136,12.0,12.0,37,0.00,,,0.00,0,Wunderground v.1.15,2013-01-18 12:30:00,
2013-01-18 05:40:00,27.4,3.9,30.23,SE,134,6.0,10.0,36,0.00,,,0.00,0,Wunderground v.1.15,2013-01-18 12:40:00,
2013-01-18 05:50:00,27.9,4.4,30.22,ESE,123,9.0,9.0,36,0.00,,,0.00,0,Wunderground v.1.15,2013-01-18 12:50:00,
2013-01-18 06:00:00,27.7,3.6,30.22,SSE,157,8.0,8.0,35,0.00,,,0.00,0,Wunderground v.1.15,2013-01-18 13:00:00,
2013-01-18 06:10:00,27.5,4.0,30.21,ESE,123,9.0,11.0,36,0.00,,,0.00,0,Wunderground v.1.15,2013-01-18 13:10:00,
2013-01-18 06:20:00,27.6,4.7,30.22,South,182,11.0,11.0,37,0.00,,,0.00,0,Wunderground v.1.15,2013-01-18 13:20:00,
2013-01-18 06:30:00,27.2,4.3,30.23,SSE,159,12.0,12.0,37,0.00,,,0.00,0,Wunderground v.1.15,2013-01-18 13:30:00,
2013-01-18 06:40:00,27.0,4.1,30.24,South,182,6.0,17.0,37,0.00,,,0.00,0,Wunderground v.1.15,2013-01-18 13:40:00,
2013-01-18 07:00:00,26.5,3.7,30.26,SSW,207,6.0,6.0,37,0.00,,,0.00,0,Wunderground v.1.15,2013-01-18 14:00:00,
2013-01-18 07:10:00,26.0,3.8,30.25,South,191,4.0,4.0,38,0.00,,,0.00,0,Wunderground v.1.15,2013-01-18 14:10:00,
2013-01-18 07:30:00,24.6,3.7,30.27,SW,222,3.0,3.0,40,0.00,,,0.00,12,Wunderground v.1.15,2013-01-18 14:30:00,
2013-01-18 07:50:00,24.6,4.2,30.26,SSW,213,1.0,1.0,41,0.00,,,0.00,42,Wunderground v.1.15,2013-01-18 14:50:00,
2013-01-18 08:20:00,29.6,6.5,30.26,NE,35,7.0,10.0,37,0.00,,,0.00,146,Wunderground v.1.15,2013-01-18 15:20:00,
2013-01-18 08:30:00,30.8,5.0,30.26,ESE,119,8.0,8.0,33,0.00,,,0.00,193,Wunderground v.1.15,2013-01-18 15:30:00,
2013-01-18 08:40:00,31.5,5.7,30.26,ESE,111,5.0,5.0,33,0.00,,,0.00,258,Wunderground v.1.15,2013-01-18 15:40:00,
2013-01-18 09:01:00,33.0,6.3,30.25,SE,131,8.0,8.0,32,0.00,,,0.00,322,Wunderground v.1.15,2013-01-18 16:01:00,
2013-01-18 09:10:00,32.2,4.9,30.25,ESE,117,8.0,9.0,31,0.00,,,0.00,153,Wunderground v.1.15,2013-01-18 16:10:00,
2013-01-18 09:31:00,30.0,5.6,30.26,NNE,30,8.0,8.0,35,0.00,,,0.00,88,Wunderground v.1.15,2013-01-18 16:31:00,
2013-01-18 09:40:00,29.7,4.7,30.28,ENE,59,6.0,6.0,34,0.00,,,0.00,72,Wunderground v.1.15,2013-01-18 16:40:00,
2013-01-18 10:00:00,30.3,5.2,30.27,West,263,6.0,6.0,34,0.00,,,0.00,243,Wunderground v.1.15,2013-01-18 17:00:00,
2013-01-18 10:10:00,31.7,5.8,30.27,West,268,6.0,6.0,33,0.00,,,0.00,418,Wunderground v.1.15,2013-01-18 17:10:00,
2013-01-18 10:20:00,33.1,6.4,30.26,North,351,7.0,7.0,32,0.00,,,0.00,434,Wunderground v.1.15,2013-01-18 17:20:00,
2013-01-18 10:30:00,34.4,6.8,30.25,ESE,114,4.0,4.0,31,0.00,,,0.00,448,Wunderground v.1.15,2013-01-18 17:30:00,
2013-01-18 10:51:00,36.1,9.0,30.23,East,92,7.0,11.0,32,0.00,,,0.00,478,Wunderground v.1.15,2013-01-18 17:51:00,
2013-01-18 11:00:00,35.2,8.2,30.22,SE,135,11.0,11.0,32,0.00,,,0.00,490,Wunderground v.1.15,2013-01-18 18:00:00,
2013-01-18 11:10:00,35.9,8.9,30.21,SE,138,11.0,13.0,32,0.00,,,0.00,499,Wunderground v.1.15,2013-01-18 18:10:00,
2013-01-18 11:40:00,38.4,8.9,30.20,SSE,166,8.0,8.0,29,0.00,,,0.00,522,Wunderground v.1.15,2013-01-18 18:40:00,
2013-01-18 11:50:00,38.5,10.4,30.19,East,88,6.0,11.0,31,0.00,,,0.00,527,Wunderground v.1.15,2013-01-18 18:50:00,
2013-01-18 12:10:00,38.6,9.0,30.18,SE,138,7.0,7.0,29,0.00,,,0.00,531,Wunderground v.1.15,2013-01-18 19:10:00,
2013-01-18 12:20:00,38.5,9.7,30.16,ESE,114,7.0,16.0,30,0.00,,,0.00,533,Wunderground v.1.15,2013-01-18 19:20:00,
2013-01-18 12:40:00,38.8,10.0,30.15,ESE,121,9.0,19.0,30,0.00,,,0.00,540,Wunderground v.1.15,2013-01-18 19:40:00,
2013-01-18 12:50:00,39.4,9.7,30.15,ENE,73,10.0,10.0,29,0.00,,,0.00,534,Wunderground v.1.15,2013-01-18 19:50:00,
2013-01-18 13:10:00,38.5,8.9,30.14,East,81,12.0,12.0,29,0.00,,,0.00,482,Wunderground v.1.15,2013-01-18 20:10:00,
2013-01-18 13:20:00,38.8,11.4,30.14,SE,130,11.0,19.0,32,0.00,,,0.00,501,Wunderground v.1.15,2013-01-18 20:20:00,
2013-01-18 13:40:00,38.7,9.1,30.14,East,82,11.0,19.0,29,0.00,,,0.00,418,Wunderground v.1.15,2013-01-18 20:40:00,
2013-01-18 13:50:00,38.9,8.5,30.16,SE,131,10.0,10.0,28,0.00,,,0.00,466,Wunderground v.1.15,2013-01-18 20:50:00,
2013-01-18 14:10:00,38.3,10.3,30.15,SSE,150,9.0,9.0,31,0.00,,,0.00,137,Wunderground v.1.15,2013-01-18 21:10:00,
2013-01-18 14:20:00,38.3,11.0,30.16,SSW,200,6.0,6.0,32,0.00,,,0.00,236,Wunderground v.1.15,2013-01-18 21:20:00,
2013-01-18 14:41:00,38.9,10.1,30.16,SSE,156,6.0,11.0,30,0.00,,,0.00,257,Wunderground v.1.15,2013-01-18 21:41:00,
2013-01-18 14:50:00,38.4,10.3,30.16,SE,145,9.0,9.0,31,0.00,,,0.00,288,Wunderground v.1.15,2013-01-18 21:50:00,
2013-01-18 15:00:00,38.3,8.8,30.16,SSE,168,7.0,7.0,29,0.00,,,0.00,171,Wunderground v.1.15,2013-01-18 22:00:00,
2013-01-18 15:20:00,37.8,9.8,30.16,ESE,109,6.0,9.0,31,0.00,,,0.00,176,Wunderground v.1.15,2013-01-18 22:20:00,
2013-01-18 15:30:00,37.2,9.3,30.17,East,88,7.0,7.0,31,0.00,,,0.00,120,Wunderground v.1.15,2013-01-18 22:30:00,
2013-01-18 15:50:00,35.8,8.8,30.19,SE,128,3.0,3.0,32,0.00,,,0.00,23,Wunderground v.1.15,2013-01-18 22:50:00,
2013-01-18 16:00:00,35.3,8.3,30.20,SW,223,4.0,5.0,32,0.00,,,0.00,19,Wunderground v.1.15,2013-01-18 23:00:00,
2013-01-18 16:20:00,34.1,8.6,30.20,South,170,2.0,2.0,34,0.00,,,0.00,14,Wunderground v.1.15,2013-01-18 23:20:00,
2013-01-18 16:30:00,33.7,8.3,30.21,SW,220,3.0,7.0,34,0.00,,,0.00,12,Wunderground v.1.15,2013-01-18 23:30:00,
2013-01-18 16:40:00,33.3,8.6,30.21,SW,217,5.0,5.0,35,0.00,,,0.00,11,Wunderground v.1.15,2013-01-18 23:40:00,
2013-01-18 17:00:00,32.4,7.7,30.22,South,186,4.0,4.0,35,0.00,,,0.00,5,Wunderground v.1.15,2013-01-19 00:00:00,
2013-01-18 17:10:00,31.9,8.5,30.22,SSW,208,2.0,4.0,37,0.00,,,0.00,0,Wunderground v.1.15,2013-01-19 00:10:00,
2013-01-18 17:40:00,30.5,8.4,30.24,South,191,3.0,3.0,39,0.00,,,0.00,0,Wunderground v.1.15,2013-01-19 00:40:00,
2013-01-18 17:50:00,29.4,7.5,30.24,WSW,246,3.0,3.0,39,0.00,,,0.00,0,Wunderground v.1.15,2013-01-19 00:50:00,
2013-01-18 18:10:00,30.3,7.1,30.23,WSW,257,5.0,5.0,37,0.00,,,0.00,0,Wunderground v.1.15,2013-01-19 01:10:00,
2013-01-18 18:20:00,31.2,7.3,30.23,West,280,6.0,10.0,36,0.00,,,0.00,0,Wunderground v.1.15,2013-01-19 01:20:00,
2013-01-18 18:41:00,30.5,6.7,30.22,SW,223,6.0,6.0,36,0.00,,,0.00,0,Wunderground v.1.15,2013-01-19 01:41:00,
2013-01-18 18:50:00,30.4,7.2,30.22,South,181,5.0,7.0,37,0.00,,,0.00,0,Wunderground v.1.15,2013-01-19 01:50:00,
2013-01-18 19:00:00,30.1,6.9,30.21,South,189,5.0,7.0,37,0.00,,,0.00,0,Wunderground v.1.15,2013-01-19 02:00:00,
2013-01-18 19:20:00,29.7,6.6,30.21,South,180,7.0,8.0,37,0.00,,,0.00,0,Wunderground v.1.15,2013-01-19 02:20:00,
2013-01-18 19:30:00,29.5,6.4,30.21,SSW,200,7.0,7.0,37,0.00,,,0.00,0,Wunderground v.1.15,2013-01-19 02:30:00,
2013-01-18 19:51:00,29.5,6.4,30.21,SSW,200,5.0,7.0,37,0.00,,,0.00,0,Wunderground v.1.15,2013-01-19 02:51:00,
2013-01-18 20:00:00,29.0,6.5,30.21,SSE,168,5.0,7.0,38,0.00,,,0.00,0,Wunderground v.1.15,2013-01-19 03:00:00,
2013-01-18 20:10:00,28.5,6.6,30.21,SSW,202,5.0,5.0,39,0.00,,,0.00,0,Wunderground v.1.15,2013-01-19 03:10:00,
2013-01-18 20:30:00,28.6,6.7,30.22,SW,215,4.0,4.0,39,0.00,,,0.00,0,Wunderground v.1.15,2013-01-19 03:30:00,
2013-01-18 20:40:00,28.1,6.8,30.22,SSW,201,3.0,3.0,40,0.00,,,0.00,0,Wunderground v.1.15,2013-01-19 03:40:00,
2013-01-18 21:00:00,27.9,6.7,30.22,SSW,202,5.0,6.0,40,0.00,,,0.00,0,Wunderground v.1.15,2013-01-19 04:00:00,
2013-01-18 21:10:00,28.3,6.5,30.22,ESE,112,3.0,3.0,39,0.00,,,0.00,0,Wunderground v.1.15,2013-01-19 04:10:00,
2013-01-18 21:30:00,28.3,7.0,30.21,South,170,9.0,9.0,40,0.00,,,0.00,0,Wunderground v.1.15,2013-01-19 04:30:00,
2013-01-18 21:40:00,28.0,6.8,30.21,South,178,8.0,8.0,40,0.00,,,0.00,0,Wunderground v.1.15,2013-01-19 04:40:00,
2013-01-18 22:10:00,26.2,6.2,30.19,SSW,196,7.0,7.0,42,0.00,,,0.00,0,Wunderground v.1.15,2013-01-19 05:10:00,
2013-01-18 22:20:00,25.8,6.3,30.18,SW,221,8.0,8.0,43,0.00,,,0.00,0,Wunderground v.1.15,2013-01-19 05:20:00,
2013-01-18 22:50:00,25.3,6.4,30.17,SSW,202,6.0,6.0,44,0.00,,,0.00,0,Wunderground v.1.15,2013-01-19 05:50:00,
2013-01-18 23:00:00,25.5,6.6,30.17,SW,221,7.0,9.0,44,0.00,,,0.00,0,Wunderground v.1.15,2013-01-19 06:00:00,
2013-01-18 23:21:00,26.1,6.6,30.17,SSW,201,5.0,6.0,43,0.00,,,0.00,0,Wunderground v.1.15,2013-01-19 06:21:00,
2013-01-18 23:30:00,25.8,6.9,30.16,SSE,165,9.0,9.0,44,0.00,,,0.00,0,Wunderground v.1.15,2013-01-19 06:30:00,